sensor_id;sensor_type;location;lat;lon;timestamp;temperature;humidity
74336;DHT22;62755;-33.398;-70.572;2022-09-12T00:01:47;14.10;52.90
74336;DHT22;62755;-33.398;-70.572;2022-09-12T00:04:16;14.10;52.80
74336;DHT22;62755;-33.398;-70.572;2022-09-12T00:06:46;14.00;52.90
74336;DHT22;62755;-33.398;-70.572;2022-09-12T00:09:17;14.00;53.20
74336;DHT22;62755;-33.398;-70.572;2022-09-12T00:11:47;13.90;53.40
74336;DHT22;62755;-33.398;-70.572;2022-09-12T00:14:17;13.90;53.60
74336;DHT22;62755;-33.398;-70.572;2022-09-12T00:16:47;13.90;53.70
74336;DHT22;62755;-33.398;-70.572;2022-09-12T00:19:17;13.80;53.90
74336;DHT22;62755;-33.398;-70.572;2022-09-12T00:21:46;13.80;54.00
74336;DHT22;62755;-33.398;-70.572;2022-09-12T00:24:18;13.90;54.20
74336;DHT22;62755;-33.398;-70.572;2022-09-12T00:26:48;13.90;53.90
74336;DHT22;62755;-33.398;-70.572;2022-09-12T00:29:19;13.80;54.40
74336;DHT22;62755;-33.398;-70.572;2022-09-12T00:31:49;13.70;54.40
74336;DHT22;62755;-33.398;-70.572;2022-09-12T00:34:18;13.80;54.30
74336;DHT22;62755;-33.398;-70.572;2022-09-12T00:36:48;13.80;54.30
74336;DHT22;62755;-33.398;-70.572;2022-09-12T00:39:19;13.90;54.30
74336;DHT22;62755;-33.398;-70.572;2022-09-12T00:41:49;13.90;54.40
74336;DHT22;62755;-33.398;-70.572;2022-09-12T00:44:43;13.90;54.20
74336;DHT22;62755;-33.398;-70.572;2022-09-12T00:47:16;13.90;55.00
74336;DHT22;62755;-33.398;-70.572;2022-09-12T00:49:50;13.90;54.60
74336;DHT22;62755;-33.398;-70.572;2022-09-12T00:52:23;13.90;54.50
74336;DHT22;62755;-33.398;-70.572;2022-09-12T00:55:02;13.90;54.70
74336;DHT22;62755;-33.398;-70.572;2022-09-12T00:57:38;13.90;55.10
74336;DHT22;62755;-33.398;-70.572;2022-09-12T01:00:11;13.90;54.90
74336;DHT22;62755;-33.398;-70.572;2022-09-12T01:02:43;13.90;54.80
74336;DHT22;62755;-33.398;-70.572;2022-09-12T01:05:13;13.90;54.80
74336;DHT22;62755;-33.398;-70.572;2022-09-12T01:07:44;13.70;55.00
74336;DHT22;62755;-33.398;-70.572;2022-09-12T01:10:17;13.60;55.30
74336;DHT22;62755;-33.398;-70.572;2022-09-12T01:12:48;13.60;55.40
74336;DHT22;62755;-33.398;-70.572;2022-09-12T01:15:17;13.60;55.40
74336;DHT22;62755;-33.398;-70.572;2022-09-12T01:17:59;13.60;55.50
74336;DHT22;62755;-33.398;-70.572;2022-09-12T01:20:49;13.50;56.40
74336;DHT22;62755;-33.398;-70.572;2022-09-12T01:23:58;13.50;56.50
74336;DHT22;62755;-33.398;-70.572;2022-09-12T01:32:34;13.30;56.90
74336;DHT22;62755;-33.398;-70.572;2022-09-12T01:35:11;13.30;56.70
74336;DHT22;62755;-33.398;-70.572;2022-09-12T01:37:44;13.30;56.50
74336;DHT22;62755;-33.398;-70.572;2022-09-12T01:40:21;13.30;56.10
74336;DHT22;62755;-33.398;-70.572;2022-09-12T01:42:55;13.10;56.40
74336;DHT22;62755;-33.398;-70.572;2022-09-12T01:45:29;13.00;56.70
74336;DHT22;62755;-33.398;-70.572;2022-09-12T01:48:06;12.80;57.20
74336;DHT22;62755;-33.398;-70.572;2022-09-12T01:50:43;12.90;57.20
74336;DHT22;62755;-33.398;-70.572;2022-09-12T01:53:17;12.90;56.60
74336;DHT22;62755;-33.398;-70.572;2022-09-12T01:55:52;12.90;56.20
74336;DHT22;62755;-33.398;-70.572;2022-09-12T01:58:26;13.00;56.10
74336;DHT22;62755;-33.398;-70.572;2022-09-12T02:01:01;13.00;56.10
74336;DHT22;62755;-33.398;-70.572;2022-09-12T02:03:38;13.00;56.10
74336;DHT22;62755;-33.398;-70.572;2022-09-12T02:06:17;13.00;56.20
74336;DHT22;62755;-33.398;-70.572;2022-09-12T02:08:50;13.00;56.30
74336;DHT22;62755;-33.398;-70.572;2022-09-12T02:11:21;13.00;56.00
74336;DHT22;62755;-33.398;-70.572;2022-09-12T02:13:54;13.00;56.00
74336;DHT22;62755;-33.398;-70.572;2022-09-12T02:16:28;12.90;56.00
74336;DHT22;62755;-33.398;-70.572;2022-09-12T02:19:05;12.90;56.30
74336;DHT22;62755;-33.398;-70.572;2022-09-12T02:21:37;12.90;56.20
74336;DHT22;62755;-33.398;-70.572;2022-09-12T02:24:09;12.90;56.10
74336;DHT22;62755;-33.398;-70.572;2022-09-12T02:26:46;12.80;56.20
74336;DHT22;62755;-33.398;-70.572;2022-09-12T02:29:17;12.80;56.30
74336;DHT22;62755;-33.398;-70.572;2022-09-12T02:31:48;12.80;56.10
74336;DHT22;62755;-33.398;-70.572;2022-09-12T02:34:31;12.80;56.30
74336;DHT22;62755;-33.398;-70.572;2022-09-12T02:37:12;12.80;56.60
74336;DHT22;62755;-33.398;-70.572;2022-09-12T02:39:46;12.70;56.50
74336;DHT22;62755;-33.398;-70.572;2022-09-12T02:42:15;12.70;56.40
74336;DHT22;62755;-33.398;-70.572;2022-09-12T02:44:45;12.70;56.50
74336;DHT22;62755;-33.398;-70.572;2022-09-12T02:47:17;12.70;56.40
74336;DHT22;62755;-33.398;-70.572;2022-09-12T02:49:50;12.70;56.20
74336;DHT22;62755;-33.398;-70.572;2022-09-12T02:52:21;12.70;56.30
74336;DHT22;62755;-33.398;-70.572;2022-09-12T02:54:51;12.70;56.10
74336;DHT22;62755;-33.398;-70.572;2022-09-12T02:57:21;12.70;56.20
74336;DHT22;62755;-33.398;-70.572;2022-09-12T02:59:52;12.70;56.20
74336;DHT22;62755;-33.398;-70.572;2022-09-12T03:02:31;12.70;56.20
74336;DHT22;62755;-33.398;-70.572;2022-09-12T03:05:24;12.70;56.30
74336;DHT22;62755;-33.398;-70.572;2022-09-12T03:08:25;12.60;56.50
74336;DHT22;62755;-33.398;-70.572;2022-09-12T03:11:12;12.50;56.70
74336;DHT22;62755;-33.398;-70.572;2022-09-12T03:13:53;12.50;56.50
74336;DHT22;62755;-33.398;-70.572;2022-09-12T03:16:33;12.50;56.50
74336;DHT22;62755;-33.398;-70.572;2022-09-12T03:19:08;12.30;56.80
74336;DHT22;62755;-33.398;-70.572;2022-09-12T03:21:51;12.20;56.90
74336;DHT22;62755;-33.398;-70.572;2022-09-12T03:24:27;12.20;57.10
74336;DHT22;62755;-33.398;-70.572;2022-09-12T03:27:03;12.20;57.00
74336;DHT22;62755;-33.398;-70.572;2022-09-12T03:29:36;12.10;57.00
74336;DHT22;62755;-33.398;-70.572;2022-09-12T03:32:06;12.10;56.90
74336;DHT22;62755;-33.398;-70.572;2022-09-12T03:34:36;12.00;56.80
74336;DHT22;62755;-33.398;-70.572;2022-09-12T03:37:07;12.00;56.80
74336;DHT22;62755;-33.398;-70.572;2022-09-12T03:39:37;12.10;56.90
74336;DHT22;62755;-33.398;-70.572;2022-09-12T03:42:07;12.00;56.90
74336;DHT22;62755;-33.398;-70.572;2022-09-12T03:44:36;12.10;56.90
74336;DHT22;62755;-33.398;-70.572;2022-09-12T03:47:06;12.10;56.80
74336;DHT22;62755;-33.398;-70.572;2022-09-12T03:49:35;12.00;56.80
74336;DHT22;62755;-33.398;-70.572;2022-09-12T03:52:06;11.90;57.00
74336;DHT22;62755;-33.398;-70.572;2022-09-12T03:54:36;11.70;57.40
74336;DHT22;62755;-33.398;-70.572;2022-09-12T03:57:06;11.50;57.90
74336;DHT22;62755;-33.398;-70.572;2022-09-12T03:59:35;11.30;59.10
74336;DHT22;62755;-33.398;-70.572;2022-09-12T04:02:05;11.10;60.20
74336;DHT22;62755;-33.398;-70.572;2022-09-12T04:04:35;11.00;60.40
74336;DHT22;62755;-33.398;-70.572;2022-09-12T04:07:07;11.00;59.90
74336;DHT22;62755;-33.398;-70.572;2022-09-12T04:09:36;11.00;60.30
74336;DHT22;62755;-33.398;-70.572;2022-09-12T04:12:06;11.00;61.00
74336;DHT22;62755;-33.398;-70.572;2022-09-12T04:14:36;11.00;60.30
74336;DHT22;62755;-33.398;-70.572;2022-09-12T04:17:05;11.00;60.20
74336;DHT22;62755;-33.398;-70.572;2022-09-12T04:19:35;11.00;60.50
74336;DHT22;62755;-33.398;-70.572;2022-09-12T04:22:06;10.90;60.20
74336;DHT22;62755;-33.398;-70.572;2022-09-12T04:24:36;10.80;61.20
74336;DHT22;62755;-33.398;-70.572;2022-09-12T04:27:06;10.70;61.30
74336;DHT22;62755;-33.398;-70.572;2022-09-12T04:29:35;10.80;61.20
74336;DHT22;62755;-33.398;-70.572;2022-09-12T04:32:05;10.90;60.80
74336;DHT22;62755;-33.398;-70.572;2022-09-12T04:34:35;10.90;60.70
74336;DHT22;62755;-33.398;-70.572;2022-09-12T04:37:07;11.00;60.30
74336;DHT22;62755;-33.398;-70.572;2022-09-12T04:39:37;11.10;59.80
74336;DHT22;62755;-33.398;-70.572;2022-09-12T04:42:07;11.10;59.70
74336;DHT22;62755;-33.398;-70.572;2022-09-12T04:44:37;11.10;59.40
74336;DHT22;62755;-33.398;-70.572;2022-09-12T04:47:06;11.00;60.00
74336;DHT22;62755;-33.398;-70.572;2022-09-12T04:49:36;11.00;59.70
74336;DHT22;62755;-33.398;-70.572;2022-09-12T04:52:07;10.90;60.50
74336;DHT22;62755;-33.398;-70.572;2022-09-12T04:54:37;10.80;60.80
74336;DHT22;62755;-33.398;-70.572;2022-09-12T04:57:07;10.80;60.20
74336;DHT22;62755;-33.398;-70.572;2022-09-12T04:59:37;10.90;60.00
74336;DHT22;62755;-33.398;-70.572;2022-09-12T05:02:06;11.10;59.60
74336;DHT22;62755;-33.398;-70.572;2022-09-12T05:04:36;11.30;59.20
74336;DHT22;62755;-33.398;-70.572;2022-09-12T05:07:07;11.40;58.70
74336;DHT22;62755;-33.398;-70.572;2022-09-12T05:09:37;11.40;58.20
74336;DHT22;62755;-33.398;-70.572;2022-09-12T05:12:07;11.50;58.30
74336;DHT22;62755;-33.398;-70.572;2022-09-12T05:14:37;11.50;57.90
74336;DHT22;62755;-33.398;-70.572;2022-09-12T05:17:07;11.50;57.70
74336;DHT22;62755;-33.398;-70.572;2022-09-12T05:19:36;11.60;57.70
74336;DHT22;62755;-33.398;-70.572;2022-09-12T05:22:07;11.50;57.70
74336;DHT22;62755;-33.398;-70.572;2022-09-12T05:24:37;11.50;57.20
74336;DHT22;62755;-33.398;-70.572;2022-09-12T05:27:09;11.30;57.20
74336;DHT22;62755;-33.398;-70.572;2022-09-12T05:29:39;11.20;57.70
74336;DHT22;62755;-33.398;-70.572;2022-09-12T05:32:09;11.20;57.90
74336;DHT22;62755;-33.398;-70.572;2022-09-12T05:34:39;11.30;57.70
74336;DHT22;62755;-33.398;-70.572;2022-09-12T05:37:10;11.10;57.90
74336;DHT22;62755;-33.398;-70.572;2022-09-12T05:39:40;11.10;58.40
74336;DHT22;62755;-33.398;-70.572;2022-09-12T05:42:09;11.10;58.40
74336;DHT22;62755;-33.398;-70.572;2022-09-12T05:44:39;11.20;58.30
74336;DHT22;62755;-33.398;-70.572;2022-09-12T05:47:11;11.30;58.20
74336;DHT22;62755;-33.398;-70.572;2022-09-12T05:49:40;11.30;58.10
74336;DHT22;62755;-33.398;-70.572;2022-09-12T05:52:13;11.30;58.00
74336;DHT22;62755;-33.398;-70.572;2022-09-12T05:54:43;11.30;58.20
74336;DHT22;62755;-33.398;-70.572;2022-09-12T05:57:13;11.30;58.20
74336;DHT22;62755;-33.398;-70.572;2022-09-12T05:59:43;11.30;58.10
74336;DHT22;62755;-33.398;-70.572;2022-09-12T06:02:12;11.30;58.40
74336;DHT22;62755;-33.398;-70.572;2022-09-12T06:04:42;11.20;58.30
74336;DHT22;62755;-33.398;-70.572;2022-09-12T06:07:13;11.10;58.60
74336;DHT22;62755;-33.398;-70.572;2022-09-12T06:09:43;11.10;58.70
74336;DHT22;62755;-33.398;-70.572;2022-09-12T06:12:12;11.10;58.70
74336;DHT22;62755;-33.398;-70.572;2022-09-12T06:14:42;11.10;58.70
74336;DHT22;62755;-33.398;-70.572;2022-09-12T06:17:11;11.10;58.60
74336;DHT22;62755;-33.398;-70.572;2022-09-12T06:19:41;11.30;58.50
74336;DHT22;62755;-33.398;-70.572;2022-09-12T06:22:12;11.40;58.10
74336;DHT22;62755;-33.398;-70.572;2022-09-12T06:24:42;11.40;57.80
74336;DHT22;62755;-33.398;-70.572;2022-09-12T06:27:12;11.40;58.00
74336;DHT22;62755;-33.398;-70.572;2022-09-12T06:29:42;11.40;57.80
74336;DHT22;62755;-33.398;-70.572;2022-09-12T06:32:12;11.50;57.50
74336;DHT22;62755;-33.398;-70.572;2022-09-12T06:34:41;11.40;57.70
74336;DHT22;62755;-33.398;-70.572;2022-09-12T06:37:15;11.20;58.00
74336;DHT22;62755;-33.398;-70.572;2022-09-12T06:39:44;11.10;58.40
74336;DHT22;62755;-33.398;-70.572;2022-09-12T06:42:14;11.00;59.00
74336;DHT22;62755;-33.398;-70.572;2022-09-12T06:44:46;10.70;59.50
74336;DHT22;62755;-33.398;-70.572;2022-09-12T06:47:16;10.70;59.70
74336;DHT22;62755;-33.398;-70.572;2022-09-12T06:49:46;10.80;59.30
74336;DHT22;62755;-33.398;-70.572;2022-09-12T06:52:18;10.90;59.00
74336;DHT22;62755;-33.398;-70.572;2022-09-12T06:54:48;10.90;59.00
74336;DHT22;62755;-33.398;-70.572;2022-09-12T06:57:17;10.90;58.90
74336;DHT22;62755;-33.398;-70.572;2022-09-12T06:59:47;11.00;58.40
74336;DHT22;62755;-33.398;-70.572;2022-09-12T07:02:18;11.10;58.20
74336;DHT22;62755;-33.398;-70.572;2022-09-12T07:04:47;11.10;57.90
74336;DHT22;62755;-33.398;-70.572;2022-09-12T07:07:19;11.10;57.90
74336;DHT22;62755;-33.398;-70.572;2022-09-12T07:09:49;11.10;57.80
74336;DHT22;62755;-33.398;-70.572;2022-09-12T07:12:19;11.20;57.80
74336;DHT22;62755;-33.398;-70.572;2022-09-12T07:14:48;11.30;57.60
74336;DHT22;62755;-33.398;-70.572;2022-09-12T07:17:18;11.30;57.50
74336;DHT22;62755;-33.398;-70.572;2022-09-12T07:19:48;11.30;57.60
74336;DHT22;62755;-33.398;-70.572;2022-09-12T07:22:19;11.30;57.30
74336;DHT22;62755;-33.398;-70.572;2022-09-12T07:24:49;11.10;57.30
74336;DHT22;62755;-33.398;-70.572;2022-09-12T07:27:20;11.10;57.20
74336;DHT22;62755;-33.398;-70.572;2022-09-12T07:29:49;11.10;56.80
74336;DHT22;62755;-33.398;-70.572;2022-09-12T07:32:19;11.10;56.30
74336;DHT22;62755;-33.398;-70.572;2022-09-12T07:34:49;11.10;56.30
74336;DHT22;62755;-33.398;-70.572;2022-09-12T07:37:20;11.10;56.20
74336;DHT22;62755;-33.398;-70.572;2022-09-12T07:39:51;11.10;56.10
74336;DHT22;62755;-33.398;-70.572;2022-09-12T07:42:20;11.00;56.20
74336;DHT22;62755;-33.398;-70.572;2022-09-12T07:44:50;11.00;56.00
74336;DHT22;62755;-33.398;-70.572;2022-09-12T07:47:20;11.00;56.00
74336;DHT22;62755;-33.398;-70.572;2022-09-12T07:49:49;11.00;56.10
74336;DHT22;62755;-33.398;-70.572;2022-09-12T07:52:21;11.00;56.00
74336;DHT22;62755;-33.398;-70.572;2022-09-12T07:54:50;11.00;56.00
74336;DHT22;62755;-33.398;-70.572;2022-09-12T07:57:20;10.90;56.00
74336;DHT22;62755;-33.398;-70.572;2022-09-12T07:59:49;10.90;56.00
74336;DHT22;62755;-33.398;-70.572;2022-09-12T08:02:19;11.00;56.00
74336;DHT22;62755;-33.398;-70.572;2022-09-12T08:04:49;11.00;55.70
74336;DHT22;62755;-33.398;-70.572;2022-09-12T08:07:21;11.00;55.50
74336;DHT22;62755;-33.398;-70.572;2022-09-12T08:09:51;11.00;55.50
74336;DHT22;62755;-33.398;-70.572;2022-09-12T08:12:21;11.00;55.50
74336;DHT22;62755;-33.398;-70.572;2022-09-12T08:14:50;11.00;55.40
74336;DHT22;62755;-33.398;-70.572;2022-09-12T08:17:20;11.00;55.20
74336;DHT22;62755;-33.398;-70.572;2022-09-12T08:19:49;10.90;55.00
74336;DHT22;62755;-33.398;-70.572;2022-09-12T08:22:21;10.90;55.10
74336;DHT22;62755;-33.398;-70.572;2022-09-12T08:24:51;10.90;54.50
74336;DHT22;62755;-33.398;-70.572;2022-09-12T08:27:21;10.80;54.30
74336;DHT22;62755;-33.398;-70.572;2022-09-12T08:29:51;10.60;54.50
74336;DHT22;62755;-33.398;-70.572;2022-09-12T08:32:21;10.50;54.60
74336;DHT22;62755;-33.398;-70.572;2022-09-12T08:34:51;10.50;54.80
74336;DHT22;62755;-33.398;-70.572;2022-09-12T08:37:22;10.40;54.60
74336;DHT22;62755;-33.398;-70.572;2022-09-12T08:39:52;10.30;55.00
74336;DHT22;62755;-33.398;-70.572;2022-09-12T08:42:30;10.30;54.70
74336;DHT22;62755;-33.398;-70.572;2022-09-12T08:45:13;10.40;54.50
74336;DHT22;62755;-33.398;-70.572;2022-09-12T08:47:46;10.40;54.30
74336;DHT22;62755;-33.398;-70.572;2022-09-12T08:50:19;10.40;53.90
74336;DHT22;62755;-33.398;-70.572;2022-09-12T08:52:55;10.30;54.40
74336;DHT22;62755;-33.398;-70.572;2022-09-12T08:55:30;10.30;54.50
74336;DHT22;62755;-33.398;-70.572;2022-09-12T08:58:05;10.30;54.30
74336;DHT22;62755;-33.398;-70.572;2022-09-12T09:00:43;10.20;54.70
74336;DHT22;62755;-33.398;-70.572;2022-09-12T09:03:44;10.20;55.20
74336;DHT22;62755;-33.398;-70.572;2022-09-12T09:06:35;10.30;55.10
74336;DHT22;62755;-33.398;-70.572;2022-09-12T09:09:16;10.40;55.20
74336;DHT22;62755;-33.398;-70.572;2022-09-12T09:11:56;10.40;54.80
74336;DHT22;62755;-33.398;-70.572;2022-09-12T09:14:42;10.50;54.70
74336;DHT22;62755;-33.398;-70.572;2022-09-12T09:17:21;10.50;54.70
74336;DHT22;62755;-33.398;-70.572;2022-09-12T09:19:58;10.50;54.80
74336;DHT22;62755;-33.398;-70.572;2022-09-12T09:22:39;10.50;54.70
74336;DHT22;62755;-33.398;-70.572;2022-09-12T09:25:16;10.60;54.60
74336;DHT22;62755;-33.398;-70.572;2022-09-12T09:27:52;10.50;54.50
74336;DHT22;62755;-33.398;-70.572;2022-09-12T09:30:22;10.50;54.50
74336;DHT22;62755;-33.398;-70.572;2022-09-12T09:32:53;10.40;54.60
74336;DHT22;62755;-33.398;-70.572;2022-09-12T09:35:30;10.50;54.70
74336;DHT22;62755;-33.398;-70.572;2022-09-12T09:38:04;10.50;54.40
74336;DHT22;62755;-33.398;-70.572;2022-09-12T09:40:46;10.40;54.60
74336;DHT22;62755;-33.398;-70.572;2022-09-12T09:43:21;10.40;54.10
74336;DHT22;62755;-33.398;-70.572;2022-09-12T09:45:56;10.40;54.00
74336;DHT22;62755;-33.398;-70.572;2022-09-12T09:48:28;10.30;54.20
74336;DHT22;62755;-33.398;-70.572;2022-09-12T09:50:59;10.30;54.40
74336;DHT22;62755;-33.398;-70.572;2022-09-12T09:53:35;10.30;54.50
74336;DHT22;62755;-33.398;-70.572;2022-09-12T09:56:12;10.30;54.40
74336;DHT22;62755;-33.398;-70.572;2022-09-12T09:58:43;10.30;54.60
74336;DHT22;62755;-33.398;-70.572;2022-09-12T10:01:15;10.20;54.80
74336;DHT22;62755;-33.398;-70.572;2022-09-12T10:03:50;10.20;54.90
74336;DHT22;62755;-33.398;-70.572;2022-09-12T10:06:25;10.20;55.20
74336;DHT22;62755;-33.398;-70.572;2022-09-12T10:09:15;10.20;55.20
74336;DHT22;62755;-33.398;-70.572;2022-09-12T10:11:48;10.20;55.20
74336;DHT22;62755;-33.398;-70.572;2022-09-12T10:14:36;10.20;55.10
74336;DHT22;62755;-33.398;-70.572;2022-09-12T10:17:27;10.20;55.00
74336;DHT22;62755;-33.398;-70.572;2022-09-12T10:19:57;10.20;55.10
74336;DHT22;62755;-33.398;-70.572;2022-09-12T10:22:28;10.20;55.10
74336;DHT22;62755;-33.398;-70.572;2022-09-12T10:24:59;10.30;55.00
74336;DHT22;62755;-33.398;-70.572;2022-09-12T10:27:31;10.20;54.20
74336;DHT22;62755;-33.398;-70.572;2022-09-12T10:30:03;10.00;54.80
74336;DHT22;62755;-33.398;-70.572;2022-09-12T10:32:35;9.80;55.00
74336;DHT22;62755;-33.398;-70.572;2022-09-12T10:35:15;9.80;55.30
74336;DHT22;62755;-33.398;-70.572;2022-09-12T10:37:53;9.90;55.20
74336;DHT22;62755;-33.398;-70.572;2022-09-12T10:40:25;9.90;55.10
74336;DHT22;62755;-33.398;-70.572;2022-09-12T10:42:57;9.90;55.20
74336;DHT22;62755;-33.398;-70.572;2022-09-12T10:45:29;9.80;55.60
74336;DHT22;62755;-33.398;-70.572;2022-09-12T10:48:00;9.60;56.40
74336;DHT22;62755;-33.398;-70.572;2022-09-12T10:50:32;9.50;56.60
74336;DHT22;62755;-33.398;-70.572;2022-09-12T10:53:19;9.40;56.80
74336;DHT22;62755;-33.398;-70.572;2022-09-12T10:56:08;9.40;57.90
74336;DHT22;62755;-33.398;-70.572;2022-09-12T10:59:08;9.40;57.60
74336;DHT22;62755;-33.398;-70.572;2022-09-12T11:01:43;9.20;57.70
74336;DHT22;62755;-33.398;-70.572;2022-09-12T11:04:28;9.00;58.00
74336;DHT22;62755;-33.398;-70.572;2022-09-12T11:07:20;9.20;58.10
74336;DHT22;62755;-33.398;-70.572;2022-09-12T11:09:57;9.30;57.40
74336;DHT22;62755;-33.398;-70.572;2022-09-12T11:12:37;9.40;57.20
74336;DHT22;62755;-33.398;-70.572;2022-09-12T11:15:25;9.50;56.80
74336;DHT22;62755;-33.398;-70.572;2022-09-12T11:18:07;9.70;56.70
74336;DHT22;62755;-33.398;-70.572;2022-09-12T11:20:51;9.80;56.50
74336;DHT22;62755;-33.398;-70.572;2022-09-12T11:23:46;10.00;56.10
74336;DHT22;62755;-33.398;-70.572;2022-09-12T11:26:28;10.00;56.00
74336;DHT22;62755;-33.398;-70.572;2022-09-12T11:29:07;10.00;56.00
74336;DHT22;62755;-33.398;-70.572;2022-09-12T11:31:55;10.00;56.00
74336;DHT22;62755;-33.398;-70.572;2022-09-12T11:34:39;10.10;55.70
74336;DHT22;62755;-33.398;-70.572;2022-09-12T11:37:28;10.20;55.50
74336;DHT22;62755;-33.398;-70.572;2022-09-12T11:40:09;10.20;55.50
74336;DHT22;62755;-33.398;-70.572;2022-09-12T11:42:43;10.20;55.20
74336;DHT22;62755;-33.398;-70.572;2022-09-12T11:45:15;10.20;55.10
74336;DHT22;62755;-33.398;-70.572;2022-09-12T11:47:51;10.20;54.70
74336;DHT22;62755;-33.398;-70.572;2022-09-12T11:50:26;10.10;54.30
74336;DHT22;62755;-33.398;-70.572;2022-09-12T11:52:59;10.00;54.40
74336;DHT22;62755;-33.398;-70.572;2022-09-12T11:55:42;10.00;54.80
74336;DHT22;62755;-33.398;-70.572;2022-09-12T11:58:13;10.10;54.70
74336;DHT22;62755;-33.398;-70.572;2022-09-12T12:00:46;10.10;54.80
74336;DHT22;62755;-33.398;-70.572;2022-09-12T12:03:22;10.20;54.90
74336;DHT22;62755;-33.398;-70.572;2022-09-12T12:05:58;10.20;55.00
74336;DHT22;62755;-33.398;-70.572;2022-09-12T12:08:31;10.30;55.00
74336;DHT22;62755;-33.398;-70.572;2022-09-12T12:11:01;10.40;55.00
74336;DHT22;62755;-33.398;-70.572;2022-09-12T12:13:33;10.60;54.80
74336;DHT22;62755;-33.398;-70.572;2022-09-12T12:16:06;10.50;55.00
74336;DHT22;62755;-33.398;-70.572;2022-09-12T12:18:39;10.60;54.90
74336;DHT22;62755;-33.398;-70.572;2022-09-12T12:21:26;10.30;55.40
74336;DHT22;62755;-33.398;-70.572;2022-09-12T12:24:10;10.40;56.30
74336;DHT22;62755;-33.398;-70.572;2022-09-12T12:26:45;10.50;56.00
74336;DHT22;62755;-33.398;-70.572;2022-09-12T12:29:38;10.70;55.90
74336;DHT22;62755;-33.398;-70.572;2022-09-12T12:32:23;10.80;55.90
74336;DHT22;62755;-33.398;-70.572;2022-09-12T12:35:36;10.90;56.30
74336;DHT22;62755;-33.398;-70.572;2022-09-12T12:38:26;11.00;57.10
74336;DHT22;62755;-33.398;-70.572;2022-09-12T12:41:43;11.10;57.40
74336;DHT22;62755;-33.398;-70.572;2022-09-12T12:44:49;11.20;57.90
74336;DHT22;62755;-33.398;-70.572;2022-09-12T12:47:21;11.40;57.70
74336;DHT22;62755;-33.398;-70.572;2022-09-12T12:49:54;11.50;56.90
74336;DHT22;62755;-33.398;-70.572;2022-09-12T12:52:29;11.50;57.10
74336;DHT22;62755;-33.398;-70.572;2022-09-12T12:55:00;11.70;57.10
74336;DHT22;62755;-33.398;-70.572;2022-09-12T12:57:44;11.70;57.00
74336;DHT22;62755;-33.398;-70.572;2022-09-12T13:00:32;11.70;58.00
74336;DHT22;62755;-33.398;-70.572;2022-09-12T13:03:04;11.70;57.60
74336;DHT22;62755;-33.398;-70.572;2022-09-12T13:05:43;11.70;57.40
74336;DHT22;62755;-33.398;-70.572;2022-09-12T13:08:28;11.80;57.00
74336;DHT22;62755;-33.398;-70.572;2022-09-12T13:11:00;11.90;56.50
74336;DHT22;62755;-33.398;-70.572;2022-09-12T13:13:33;11.90;56.20
74336;DHT22;62755;-33.398;-70.572;2022-09-12T13:16:05;11.90;56.60
74336;DHT22;62755;-33.398;-70.572;2022-09-12T13:18:41;11.70;57.00
74336;DHT22;62755;-33.398;-70.572;2022-09-12T13:21:13;11.70;57.20
74336;DHT22;62755;-33.398;-70.572;2022-09-12T13:23:45;11.90;56.70
74336;DHT22;62755;-33.398;-70.572;2022-09-12T13:26:27;11.90;56.50
74336;DHT22;62755;-33.398;-70.572;2022-09-12T13:29:11;12.00;56.50
74336;DHT22;62755;-33.398;-70.572;2022-09-12T13:31:44;12.00;56.70
74336;DHT22;62755;-33.398;-70.572;2022-09-12T13:34:18;12.00;55.90
74336;DHT22;62755;-33.398;-70.572;2022-09-12T13:37:11;12.20;55.80
74336;DHT22;62755;-33.398;-70.572;2022-09-12T13:39:48;12.30;55.50
74336;DHT22;62755;-33.398;-70.572;2022-09-12T13:42:37;12.30;55.40
74336;DHT22;62755;-33.398;-70.572;2022-09-12T13:45:14;12.30;55.10
74336;DHT22;62755;-33.398;-70.572;2022-09-12T13:47:49;12.50;54.90
74336;DHT22;62755;-33.398;-70.572;2022-09-12T13:50:21;12.50;55.00
74336;DHT22;62755;-33.398;-70.572;2022-09-12T13:52:53;12.50;55.00
74336;DHT22;62755;-33.398;-70.572;2022-09-12T13:55:30;12.60;54.70
74336;DHT22;62755;-33.398;-70.572;2022-09-12T13:58:01;12.70;54.50
74336;DHT22;62755;-33.398;-70.572;2022-09-12T14:00:32;12.60;54.60
74336;DHT22;62755;-33.398;-70.572;2022-09-12T14:03:24;12.70;54.70
74336;DHT22;62755;-33.398;-70.572;2022-09-12T14:06:11;12.80;54.70
74336;DHT22;62755;-33.398;-70.572;2022-09-12T14:08:45;12.90;54.50
74336;DHT22;62755;-33.398;-70.572;2022-09-12T14:11:25;13.00;54.30
74336;DHT22;62755;-33.398;-70.572;2022-09-12T14:13:55;13.10;54.50
74336;DHT22;62755;-33.398;-70.572;2022-09-12T14:16:25;13.10;54.50
74336;DHT22;62755;-33.398;-70.572;2022-09-12T14:18:55;13.20;55.00
74336;DHT22;62755;-33.398;-70.572;2022-09-12T14:21:35;13.30;55.70
74336;DHT22;62755;-33.398;-70.572;2022-09-12T14:24:08;13.50;56.30
74336;DHT22;62755;-33.398;-70.572;2022-09-12T14:26:42;13.80;57.50
74336;DHT22;62755;-33.398;-70.572;2022-09-12T14:29:15;14.50;58.70
74336;DHT22;62755;-33.398;-70.572;2022-09-12T14:31:45;15.80;57.00
74336;DHT22;62755;-33.398;-70.572;2022-09-12T14:34:16;18.00;53.10
74336;DHT22;62755;-33.398;-70.572;2022-09-12T14:36:47;20.20;48.00
74336;DHT22;62755;-33.398;-70.572;2022-09-12T14:39:27;22.20;44.00
74336;DHT22;62755;-33.398;-70.572;2022-09-12T14:42:06;24.00;39.70
74336;DHT22;62755;-33.398;-70.572;2022-09-12T14:44:40;25.40;36.70
74336;DHT22;62755;-33.398;-70.572;2022-09-12T14:47:14;26.10;36.30
74336;DHT22;62755;-33.398;-70.572;2022-09-12T14:49:46;27.20;34.20
74336;DHT22;62755;-33.398;-70.572;2022-09-12T14:52:24;27.60;31.00
74336;DHT22;62755;-33.398;-70.572;2022-09-12T14:54:59;27.90;30.90
74336;DHT22;62755;-33.398;-70.572;2022-09-12T14:57:37;28.10;30.50
74336;DHT22;62755;-33.398;-70.572;2022-09-12T15:00:24;28.50;30.90
74336;DHT22;62755;-33.398;-70.572;2022-09-12T15:02:54;28.90;30.10
74336;DHT22;62755;-33.398;-70.572;2022-09-12T15:05:26;29.10;30.10
74336;DHT22;62755;-33.398;-70.572;2022-09-12T15:07:58;29.10;29.60
74336;DHT22;62755;-33.398;-70.572;2022-09-12T15:10:29;29.10;29.80
74336;DHT22;62755;-33.398;-70.572;2022-09-12T15:13:18;29.20;29.30
74336;DHT22;62755;-33.398;-70.572;2022-09-12T15:15:50;29.30;28.60
74336;DHT22;62755;-33.398;-70.572;2022-09-12T15:18:21;29.30;28.90
74336;DHT22;62755;-33.398;-70.572;2022-09-12T15:20:53;29.00;28.90
74336;DHT22;62755;-33.398;-70.572;2022-09-12T15:23:35;28.50;29.30
74336;DHT22;62755;-33.398;-70.572;2022-09-12T15:26:08;28.00;29.10
74336;DHT22;62755;-33.398;-70.572;2022-09-12T15:28:39;27.10;30.20
74336;DHT22;62755;-33.398;-70.572;2022-09-12T15:31:14;26.20;31.20
74336;DHT22;62755;-33.398;-70.572;2022-09-12T15:33:44;25.50;31.90
74336;DHT22;62755;-33.398;-70.572;2022-09-12T15:36:15;24.80;33.10
74336;DHT22;62755;-33.398;-70.572;2022-09-12T15:38:48;24.40;33.40